sensor_id;sensor_type;location;lat;lon;timestamp;P1;durP1;ratioP1;P2;durP2;ratioP2
7128;SDS011;3606;52.930;8.644;2024-01-15T00:01:28;12.27;;;2.30;;
7128;SDS011;3606;52.930;8.644;2024-01-15T00:03:54;8.30;;;2.23;;
7128;SDS011;3606;52.930;8.644;2024-01-15T00:06:20;4.57;;;1.70;;
7128;SDS011;3606;52.930;8.644;2024-01-15T00:08:46;8.03;;;2.20;;
7128;SDS011;3606;52.930;8.644;2024-01-15T00:11:11;4.87;;;2.63;;
7128;SDS011;3606;52.930;8.644;2024-01-15T00:13:37;8.93;;;2.10;;
7128;SDS011;3606;52.930;8.644;2024-01-15T00:16:03;4.97;;;2.10;;
7128;SDS011;3606;52.930;8.644;2024-01-15T00:18:29;12.90;;;2.23;;
7128;SDS011;3606;52.930;8.644;2024-01-15T00:20:55;6.83;;;2.13;;
7128;SDS011;3606;52.930;8.644;2024-01-15T00:23:21;8.03;;;2.27;;
7128;SDS011;3606;52.930;8.644;2024-01-15T00:25:47;12.67;;;2.43;;
7128;SDS011;3606;52.930;8.644;2024-01-15T00:28:13;11.57;;;2.30;;
7128;SDS011;3606;52.930;8.644;2024-01-15T00:30:38;7.43;;;2.43;;
7128;SDS011;3606;52.930;8.644;2024-01-15T00:33:04;7.67;;;2.30;;
7128;SDS011;3606;52.930;8.644;2024-01-15T00:35:29;15.20;;;2.10;;
7128;SDS011;3606;52.930;8.644;2024-01-15T00:37:55;7.73;;;1.87;;
7128;SDS011;3606;52.930;8.644;2024-01-15T00:40:21;4.37;;;1.90;;
7128;SDS011;3606;52.930;8.644;2024-01-15T00:42:46;6.03;;;2.13;;
7128;SDS011;3606;52.930;8.644;2024-01-15T00:45:12;9.10;;;2.67;;
7128;SDS011;3606;52.930;8.644;2024-01-15T00:47:38;8.60;;;2.00;;
7128;SDS011;3606;52.930;8.644;2024-01-15T00:50:03;12.47;;;2.70;;
7128;SDS011;3606;52.930;8.644;2024-01-15T00:52:29;10.73;;;2.17;;
7128;SDS011;3606;52.930;8.644;2024-01-15T00:54:55;10.63;;;1.90;;
7128;SDS011;3606;52.930;8.644;2024-01-15T00:57:20;8.23;;;2.30;;
7128;SDS011;3606;52.930;8.644;2024-01-15T00:59:46;11.33;;;2.23;;
7128;SDS011;3606;52.930;8.644;2024-01-15T01:02:12;4.97;;;2.07;;
7128;SDS011;3606;52.930;8.644;2024-01-15T01:04:38;6.50;;;2.20;;
7128;SDS011;3606;52.930;8.644;2024-01-15T01:07:03;6.87;;;1.90;;
7128;SDS011;3606;52.930;8.644;2024-01-15T01:09:29;2.87;;;1.80;;
7128;SDS011;3606;52.930;8.644;2024-01-15T01:11:55;7.20;;;2.30;;
7128;SDS011;3606;52.930;8.644;2024-01-15T01:14:21;6.57;;;2.40;;
7128;SDS011;3606;52.930;8.644;2024-01-15T01:16:47;7.27;;;2.80;;
7128;SDS011;3606;52.930;8.644;2024-01-15T01:19:12;7.27;;;2.20;;
7128;SDS011;3606;52.930;8.644;2024-01-15T01:21:38;7.23;;;2.70;;
7128;SDS011;3606;52.930;8.644;2024-01-15T01:24:04;8.13;;;2.50;;
7128;SDS011;3606;52.930;8.644;2024-01-15T01:26:30;7.53;;;1.83;;
7128;SDS011;3606;52.930;8.644;2024-01-15T01:28:56;8.17;;;2.17;;
7128;SDS011;3606;52.930;8.644;2024-01-15T01:31:22;8.80;;;2.30;;
7128;SDS011;3606;52.930;8.644;2024-01-15T01:33:48;5.93;;;1.83;;
7128;SDS011;3606;52.930;8.644;2024-01-15T01:36:14;6.80;;;1.63;;
7128;SDS011;3606;52.930;8.644;2024-01-15T01:38:40;5.07;;;1.90;;
7128;SDS011;3606;52.930;8.644;2024-01-15T01:41:06;8.27;;;2.50;;
7128;SDS011;3606;52.930;8.644;2024-01-15T01:43:32;11.33;;;2.47;;
7128;SDS011;3606;52.930;8.644;2024-01-15T01:45:58;7.07;;;1.90;;
7128;SDS011;3606;52.930;8.644;2024-01-15T01:48:26;9.63;;;2.03;;
7128;SDS011;3606;52.930;8.644;2024-01-15T01:50:56;7.20;;;2.40;;
7128;SDS011;3606;52.930;8.644;2024-01-15T01:53:24;8.23;;;2.60;;
7128;SDS011;3606;52.930;8.644;2024-01-15T01:55:51;5.77;;;2.10;;
7128;SDS011;3606;52.930;8.644;2024-01-15T01:58:17;7.40;;;2.30;;
7128;SDS011;3606;52.930;8.644;2024-01-15T02:00:44;7.13;;;2.03;;
7128;SDS011;3606;52.930;8.644;2024-01-15T02:03:10;7.30;;;2.33;;
7128;SDS011;3606;52.930;8.644;2024-01-15T02:05:36;5.90;;;2.10;;
7128;SDS011;3606;52.930;8.644;2024-01-15T02:08:02;6.73;;;2.20;;
7128;SDS011;3606;52.930;8.644;2024-01-15T02:10:27;5.53;;;2.67;;
7128;SDS011;3606;52.930;8.644;2024-01-15T02:12:53;8.13;;;2.03;;
7128;SDS011;3606;52.930;8.644;2024-01-15T02:15:19;9.40;;;2.30;;
7128;SDS011;3606;52.930;8.644;2024-01-15T02:20:24;5.87;;;2.23;;
7128;SDS011;3606;52.930;8.644;2024-01-15T02:22:50;9.43;;;2.40;;
7128;SDS011;3606;52.930;8.644;2024-01-15T02:25:16;10.03;;;2.30;;
7128;SDS011;3606;52.930;8.644;2024-01-15T02:27:42;3.70;;;2.07;;
7128;SDS011;3606;52.930;8.644;2024-01-15T02:30:09;10.30;;;2.50;;
7128;SDS011;3606;52.930;8.644;2024-01-15T02:32:36;10.60;;;2.60;;
7128;SDS011;3606;52.930;8.644;2024-01-15T02:35:02;3.90;;;1.80;;
7128;SDS011;3606;52.930;8.644;2024-01-15T02:37:28;6.90;;;2.10;;
7128;SDS011;3606;52.930;8.644;2024-01-15T02:39:53;4.77;;;1.90;;
7128;SDS011;3606;52.930;8.644;2024-01-15T02:42:19;7.90;;;2.10;;
7128;SDS011;3606;52.930;8.644;2024-01-15T02:44:45;5.57;;;1.73;;
7128;SDS011;3606;52.930;8.644;2024-01-15T02:47:10;6.90;;;2.00;;
7128;SDS011;3606;52.930;8.644;2024-01-15T02:49:36;6.27;;;1.67;;
7128;SDS011;3606;52.930;8.644;2024-01-15T02:52:01;6.13;;;2.20;;
7128;SDS011;3606;52.930;8.644;2024-01-15T02:54:27;5.03;;;1.60;;
7128;SDS011;3606;52.930;8.644;2024-01-15T02:56:53;6.33;;;2.20;;
7128;SDS011;3606;52.930;8.644;2024-01-15T02:59:18;7.53;;;1.80;;
7128;SDS011;3606;52.930;8.644;2024-01-15T03:01:44;7.00;;;1.90;;
7128;SDS011;3606;52.930;8.644;2024-01-15T03:04:09;5.37;;;1.67;;
7128;SDS011;3606;52.930;8.644;2024-01-15T03:06:35;6.27;;;2.30;;
7128;SDS011;3606;52.930;8.644;2024-01-15T03:09:00;5.80;;;1.70;;
7128;SDS011;3606;52.930;8.644;2024-01-15T03:11:26;4.83;;;1.83;;
7128;SDS011;3606;52.930;8.644;2024-01-15T03:13:52;6.70;;;2.33;;
7128;SDS011;3606;52.930;8.644;2024-01-15T03:16:17;8.90;;;2.07;;
7128;SDS011;3606;52.930;8.644;2024-01-15T03:18:45;5.13;;;1.87;;
7128;SDS011;3606;52.930;8.644;2024-01-15T03:21:10;8.87;;;2.47;;
7128;SDS011;3606;52.930;8.644;2024-01-15T03:23:36;5.07;;;1.80;;
7128;SDS011;3606;52.930;8.644;2024-01-15T03:26:01;5.70;;;2.03;;
7128;SDS011;3606;52.930;8.644;2024-01-15T03:28:27;5.43;;;2.20;;
7128;SDS011;3606;52.930;8.644;2024-01-15T03:30:55;7.33;;;2.23;;
7128;SDS011;3606;52.930;8.644;2024-01-15T03:33:20;10.63;;;2.40;;
7128;SDS011;3606;52.930;8.644;2024-01-15T03:35:46;10.27;;;2.50;;
7128;SDS011;3606;52.930;8.644;2024-01-15T03:38:12;5.20;;;2.10;;
7128;SDS011;3606;52.930;8.644;2024-01-15T03:40:37;7.87;;;2.23;;
7128;SDS011;3606;52.930;8.644;2024-01-15T03:43:03;4.17;;;2.30;;
7128;SDS011;3606;52.930;8.644;2024-01-15T03:45:28;6.17;;;2.30;;
7128;SDS011;3606;52.930;8.644;2024-01-15T03:47:54;8.47;;;2.17;;
7128;SDS011;3606;52.930;8.644;2024-01-15T03:50:20;9.77;;;3.03;;
7128;SDS011;3606;52.930;8.644;2024-01-15T03:52:45;9.77;;;2.60;;
7128;SDS011;3606;52.930;8.644;2024-01-15T03:55:11;7.43;;;2.53;;
7128;SDS011;3606;52.930;8.644;2024-01-15T03:57:36;11.20;;;2.47;;
7128;SDS011;3606;52.930;8.644;2024-01-15T04:00:02;11.83;;;2.63;;
7128;SDS011;3606;52.930;8.644;2024-01-15T04:02:28;7.17;;;1.90;;
7128;SDS011;3606;52.930;8.644;2024-01-15T04:04:54;4.57;;;1.87;;
7128;SDS011;3606;52.930;8.644;2024-01-15T04:07:19;3.50;;;1.90;;
7128;SDS011;3606;52.930;8.644;2024-01-15T04:09:45;8.47;;;2.10;;
7128;SDS011;3606;52.930;8.644;2024-01-15T04:12:11;10.80;;;2.43;;
7128;SDS011;3606;52.930;8.644;2024-01-15T04:14:36;6.27;;;2.27;;
7128;SDS011;3606;52.930;8.644;2024-01-15T04:17:02;5.20;;;1.80;;
7128;SDS011;3606;52.930;8.644;2024-01-15T04:19:27;8.97;;;2.67;;
7128;SDS011;3606;52.930;8.644;2024-01-15T04:21:53;7.37;;;2.40;;
7128;SDS011;3606;52.930;8.644;2024-01-15T04:24:19;8.10;;;2.23;;
7128;SDS011;3606;52.930;8.644;2024-01-15T04:26:45;5.60;;;1.70;;
7128;SDS011;3606;52.930;8.644;2024-01-15T04:29:10;7.67;;;2.27;;
7128;SDS011;3606;52.930;8.644;2024-01-15T04:31:36;10.00;;;2.47;;
7128;SDS011;3606;52.930;8.644;2024-01-15T04:34:01;13.83;;;2.40;;
7128;SDS011;3606;52.930;8.644;2024-01-15T04:36:27;7.83;;;1.90;;
7128;SDS011;3606;52.930;8.644;2024-01-15T04:38:53;8.30;;;2.17;;
7128;SDS011;3606;52.930;8.644;2024-01-15T04:41:18;9.73;;;2.30;;
7128;SDS011;3606;52.930;8.644;2024-01-15T04:43:44;9.03;;;2.50;;
7128;SDS011;3606;52.930;8.644;2024-01-15T04:46:09;10.60;;;2.33;;
7128;SDS011;3606;52.930;8.644;2024-01-15T04:48:35;5.77;;;2.10;;
7128;SDS011;3606;52.930;8.644;2024-01-15T04:51:03;9.83;;;2.20;;
7128;SDS011;3606;52.930;8.644;2024-01-15T04:53:30;10.00;;;2.10;;
7128;SDS011;3606;52.930;8.644;2024-01-15T04:55:55;5.20;;;2.07;;
7128;SDS011;3606;52.930;8.644;2024-01-15T04:58:21;6.50;;;2.03;;
7128;SDS011;3606;52.930;8.644;2024-01-15T05:00:49;5.40;;;2.10;;
7128;SDS011;3606;52.930;8.644;2024-01-15T05:03:15;5.17;;;1.97;;
7128;SDS011;3606;52.930;8.644;2024-01-15T05:05:41;4.73;;;1.73;;
7128;SDS011;3606;52.930;8.644;2024-01-15T05:08:06;2.60;;;1.80;;
7128;SDS011;3606;52.930;8.644;2024-01-15T05:10:32;3.23;;;1.90;;
7128;SDS011;3606;52.930;8.644;2024-01-15T05:12:57;3.30;;;1.87;;
7128;SDS011;3606;52.930;8.644;2024-01-15T05:15:23;9.50;;;2.27;;
7128;SDS011;3606;52.930;8.644;2024-01-15T05:17:48;3.43;;;2.20;;
7128;SDS011;3606;52.930;8.644;2024-01-15T05:20:14;8.20;;;2.40;;
7128;SDS011;3606;52.930;8.644;2024-01-15T05:22:40;8.30;;;2.70;;
7128;SDS011;3606;52.930;8.644;2024-01-15T05:25:05;14.50;;;2.20;;
7128;SDS011;3606;52.930;8.644;2024-01-15T05:27:31;11.93;;;2.60;;
7128;SDS011;3606;52.930;8.644;2024-01-15T05:29:57;9.90;;;2.50;;
7128;SDS011;3606;52.930;8.644;2024-01-15T05:32:22;7.27;;;2.20;;
7128;SDS011;3606;52.930;8.644;2024-01-15T05:34:48;8.30;;;2.20;;
7128;SDS011;3606;52.930;8.644;2024-01-15T05:37:14;5.63;;;2.13;;
7128;SDS011;3606;52.930;8.644;2024-01-15T05:39:39;5.83;;;2.57;;
7128;SDS011;3606;52.930;8.644;2024-01-15T05:42:05;4.57;;;2.17;;
7128;SDS011;3606;52.930;8.644;2024-01-15T05:44:31;9.17;;;2.20;;
7128;SDS011;3606;52.930;8.644;2024-01-15T05:46:56;8.73;;;2.40;;
7128;SDS011;3606;52.930;8.644;2024-01-15T05:49:22;10.23;;;2.60;;
7128;SDS011;3606;52.930;8.644;2024-01-15T05:51:48;10.53;;;2.70;;
7128;SDS011;3606;52.930;8.644;2024-01-15T05:54:13;5.10;;;2.17;;
7128;SDS011;3606;52.930;8.644;2024-01-15T05:56:39;13.77;;;2.67;;
7128;SDS011;3606;52.930;8.644;2024-01-15T05:59:05;3.87;;;2.20;;
7128;SDS011;3606;52.930;8.644;2024-01-15T06:01:30;7.27;;;2.47;;
7128;SDS011;3606;52.930;8.644;2024-01-15T06:03:56;8.93;;;2.40;;
7128;SDS011;3606;52.930;8.644;2024-01-15T06:06:21;7.83;;;1.80;;
7128;SDS011;3606;52.930;8.644;2024-01-15T06:08:47;6.43;;;2.20;;
7128;SDS011;3606;52.930;8.644;2024-01-15T06:11:14;6.77;;;2.63;;
7128;SDS011;3606;52.930;8.644;2024-01-15T06:13:40;11.33;;;2.47;;
7128;SDS011;3606;52.930;8.644;2024-01-15T06:16:12;7.37;;;2.37;;
7128;SDS011;3606;52.930;8.644;2024-01-15T06:18:39;8.77;;;2.23;;
7128;SDS011;3606;52.930;8.644;2024-01-15T06:21:04;5.20;;;2.03;;
7128;SDS011;3606;52.930;8.644;2024-01-15T06:23:30;5.10;;;2.60;;
7128;SDS011;3606;52.930;8.644;2024-01-15T06:25:55;10.93;;;2.90;;
7128;SDS011;3606;52.930;8.644;2024-01-15T06:28:21;6.17;;;2.57;;
7128;SDS011;3606;52.930;8.644;2024-01-15T06:30:47;3.43;;;2.03;;
7128;SDS011;3606;52.930;8.644;2024-01-15T06:33:13;10.73;;;2.40;;
7128;SDS011;3606;52.930;8.644;2024-01-15T06:35:38;9.50;;;2.60;;
7128;SDS011;3606;52.930;8.644;2024-01-15T06:38:04;4.97;;;1.90;;
7128;SDS011;3606;52.930;8.644;2024-01-15T06:40:29;6.80;;;2.73;;
7128;SDS011;3606;52.930;8.644;2024-01-15T06:42:55;8.17;;;2.93;;
7128;SDS011;3606;52.930;8.644;2024-01-15T06:45:20;10.63;;;3.20;;
7128;SDS011;3606;52.930;8.644;2024-01-15T06:47:46;7.53;;;3.00;;
7128;SDS011;3606;52.930;8.644;2024-01-15T06:50:12;5.73;;;2.23;;
7128;SDS011;3606;52.930;8.644;2024-01-15T06:52:37;11.13;;;2.87;;
7128;SDS011;3606;52.930;8.644;2024-01-15T06:55:03;5.97;;;2.30;;
7128;SDS011;3606;52.930;8.644;2024-01-15T06:57:29;8.63;;;3.00;;
7128;SDS011;3606;52.930;8.644;2024-01-15T06:59:54;9.53;;;3.00;;
7128;SDS011;3606;52.930;8.644;2024-01-15T07:02:20;10.53;;;2.73;;
7128;SDS011;3606;52.930;8.644;2024-01-15T07:04:46;7.50;;;2.70;;
7128;SDS011;3606;52.930;8.644;2024-01-15T07:07:12;11.40;;;3.07;;
7128;SDS011;3606;52.930;8.644;2024-01-15T07:09:37;9.63;;;2.73;;
7128;SDS011;3606;52.930;8.644;2024-01-15T07:12:03;12.40;;;2.77;;
7128;SDS011;3606;52.930;8.644;2024-01-15T07:14:29;8.50;;;2.57;;
7128;SDS011;3606;52.930;8.644;2024-01-15T07:16:54;9.27;;;2.57;;
7128;SDS011;3606;52.930;8.644;2024-01-15T07:19:20;7.23;;;2.40;;
7128;SDS011;3606;52.930;8.644;2024-01-15T07:21:45;7.73;;;2.40;;
7128;SDS011;3606;52.930;8.644;2024-01-15T07:24:11;7.47;;;2.13;;
7128;SDS011;3606;52.930;8.644;2024-01-15T07:26:37;7.10;;;2.40;;
7128;SDS011;3606;52.930;8.644;2024-01-15T07:29:02;8.80;;;2.00;;
7128;SDS011;3606;52.930;8.644;2024-01-15T07:31:28;6.23;;;1.87;;
7128;SDS011;3606;52.930;8.644;2024-01-15T07:33:54;3.83;;;1.90;;
7128;SDS011;3606;52.930;8.644;2024-01-15T07:36:19;3.67;;;1.70;;
7128;SDS011;3606;52.930;8.644;2024-01-15T07:38:45;2.93;;;1.40;;
7128;SDS011;3606;52.930;8.644;2024-01-15T07:41:12;3.97;;;1.70;;
7128;SDS011;3606;52.930;8.644;2024-01-15T07:43:39;9.87;;;1.93;;
7128;SDS011;3606;52.930;8.644;2024-01-15T07:46:04;4.57;;;1.67;;
7128;SDS011;3606;52.930;8.644;2024-01-15T07:48:30;4.53;;;1.80;;
7128;SDS011;3606;52.930;8.644;2024-01-15T07:50:55;6.13;;;1.57;;
7128;SDS011;3606;52.930;8.644;2024-01-15T07:53:21;7.90;;;2.20;;
7128;SDS011;3606;52.930;8.644;2024-01-15T07:55:46;4.50;;;2.10;;
7128;SDS011;3606;52.930;8.644;2024-01-15T07:58:12;5.60;;;1.90;;
7128;SDS011;3606;52.930;8.644;2024-01-15T08:00:38;3.27;;;2.00;;
7128;SDS011;3606;52.930;8.644;2024-01-15T08:03:03;2.63;;;1.27;;
7128;SDS011;3606;52.930;8.644;2024-01-15T08:05:29;7.70;;;1.93;;
7128;SDS011;3606;52.930;8.644;2024-01-15T08:07:55;5.60;;;1.63;;
7128;SDS011;3606;52.930;8.644;2024-01-15T08:10:21;5.03;;;2.70;;
7128;SDS011;3606;52.930;8.644;2024-01-15T08:12:46;8.47;;;3.23;;
7128;SDS011;3606;52.930;8.644;2024-01-15T08:15:12;5.60;;;2.33;;
7128;SDS011;3606;52.930;8.644;2024-01-15T08:17:37;7.90;;;2.50;;
7128;SDS011;3606;52.930;8.644;2024-01-15T08:20:03;7.73;;;1.80;;
7128;SDS011;3606;52.930;8.644;2024-01-15T08:22:30;7.87;;;2.03;;
7128;SDS011;3606;52.930;8.644;2024-01-15T08:24:55;4.70;;;2.00;;
7128;SDS011;3606;52.930;8.644;2024-01-15T08:27:21;6.67;;;2.37;;
7128;SDS011;3606;52.930;8.644;2024-01-15T08:29:47;8.43;;;2.30;;
7128;SDS011;3606;52.930;8.644;2024-01-15T08:32:12;6.23;;;2.10;;
7128;SDS011;3606;52.930;8.644;2024-01-15T08:34:40;3.47;;;2.13;;
7128;SDS011;3606;52.930;8.644;2024-01-15T08:37:06;11.10;;;2.20;;
7128;SDS011;3606;52.930;8.644;2024-01-15T08:39:32;7.60;;;2.30;;
7128;SDS011;3606;52.930;8.644;2024-01-15T08:41:57;14.00;;;2.90;;
7128;SDS011;3606;52.930;8.644;2024-01-15T08:44:23;7.20;;;2.33;;
7128;SDS011;3606;52.930;8.644;2024-01-15T08:46:48;13.33;;;2.83;;
7128;SDS011;3606;52.930;8.644;2024-01-15T08:49:14;4.30;;;1.87;;
7128;SDS011;3606;52.930;8.644;2024-01-15T08:51:40;7.53;;;2.13;;
7128;SDS011;3606;52.930;8.644;2024-01-15T08:54:05;7.80;;;2.80;;
7128;SDS011;3606;52.930;8.644;2024-01-15T08:56:33;5.30;;;1.93;;
7128;SDS011;3606;52.930;8.644;2024-01-15T08:58:59;8.10;;;2.70;;
7128;SDS011;3606;52.930;8.644;2024-01-15T09:01:24;11.03;;;2.60;;
7128;SDS011;3606;52.930;8.644;2024-01-15T09:03:50;5.47;;;2.30;;
7128;SDS011;3606;52.930;8.644;2024-01-15T09:06:16;6.13;;;2.57;;
7128;SDS011;3606;52.930;8.644;2024-01-15T09:08:42;6.87;;;2.20;;
7128;SDS011;3606;52.930;8.644;2024-01-15T09:11:07;9.27;;;2.13;;
7128;SDS011;3606;52.930;8.644;2024-01-15T09:13:33;3.60;;;1.50;;
7128;SDS011;3606;52.930;8.644;2024-01-15T09:15:58;4.60;;;1.80;;
7128;SDS011;3606;52.930;8.644;2024-01-15T09:18:25;2.83;;;1.73;;
7128;SDS011;3606;52.930;8.644;2024-01-15T09:20:50;5.70;;;1.73;;
7128;SDS011;3606;52.930;8.644;2024-01-15T09:23:16;5.50;;;2.13;;
7128;SDS011;3606;52.930;8.644;2024-01-15T09:25:42;4.80;;;1.90;;
7128;SDS011;3606;52.930;8.644;2024-01-15T09:28:07;3.53;;;1.80;;
7128;SDS011;3606;52.930;8.644;2024-01-15T09:30:33;9.43;;;2.47;;
7128;SDS011;3606;52.930;8.644;2024-01-15T09:32:58;6.17;;;3.07;;
7128;SDS011;3606;52.930;8.644;2024-01-15T09:35:24;2.23;;;1.77;;
7128;SDS011;3606;52.930;8.644;2024-01-15T09:37:50;4.87;;;2.10;;
7128;SDS011;3606;52.930;8.644;2024-01-15T09:40:15;6.37;;;3.33;;
7128;SDS011;3606;52.930;8.644;2024-01-15T09:42:41;10.50;;;5.27;;
7128;SDS011;3606;52.930;8.644;2024-01-15T09:45:07;6.53;;;3.30;;
7128;SDS011;3606;52.930;8.644;2024-01-15T09:47:34;3.50;;;1.80;;
7128;SDS011;3606;52.930;8.644;2024-01-15T09:50:01;4.33;;;2.30;;
7128;SDS011;3606;52.930;8.644;2024-01-15T09:52:28;4.33;;;2.20;;
7128;SDS011;3606;52.930;8.644;2024-01-15T09:54:55;3.77;;;1.87;;
7128;SDS011;3606;52.930;8.644;2024-01-15T09:57:23;7.03;;;3.00;;
7128;SDS011;3606;52.930;8.644;2024-01-15T09:59:48;3.97;;;2.47;;
7128;SDS011;3606;52.930;8.644;2024-01-15T10:02:17;5.27;;;2.30;;
7128;SDS011;3606;52.930;8.644;2024-01-15T10:04:43;4.47;;;3.03;;
7128;SDS011;3606;52.930;8.644;2024-01-15T10:07:09;5.33;;;2.80;;
7128;SDS011;3606;52.930;8.644;2024-01-15T10:09:42;5.17;;;3.07;;
7128;SDS011;3606;52.930;8.644;2024-01-15T10:12:08;10.63;;;3.37;;
7128;SDS011;3606;52.930;8.644;2024-01-15T10:14:35;13.87;;;4.73;;
7128;SDS011;3606;52.930;8.644;2024-01-15T10:17:00;12.20;;;4.37;;
7128;SDS011;3606;52.930;8.644;2024-01-15T10:19:36;12.63;;;3.70;;
7128;SDS011;3606;52.930;8.644;2024-01-15T10:22:02;8.43;;;2.80;;
7128;SDS011;3606;52.930;8.644;2024-01-15T10:24:28;8.23;;;2.97;;
7128;SDS011;3606;52.930;8.644;2024-01-15T10:27:04;10.10;;;2.90;;
7128;SDS011;3606;52.930;8.644;2024-01-15T10:29:31;8.63;;;3.57;;
7128;SDS011;3606;52.930;8.644;2024-01-15T10:31:56;9.30;;;3.27;;
7128;SDS011;3606;52.930;8.644;2024-01-15T10:34:22;7.07;;;2.80;;
7128;SDS011;3606;52.930;8.644;2024-01-15T10:36:47;6.67;;;2.47;;
7128;SDS011;3606;52.930;8.644;2024-01-15T10:39:20;6.40;;;2.60;;
7128;SDS011;3606;52.930;8.644;2024-01-15T10:41:46;3.93;;;2.50;;
7128;SDS011;3606;52.930;8.644;2024-01-15T10:44:12;5.17;;;2.07;;
7128;SDS011;3606;52.930;8.644;2024-01-15T10:46:37;15.97;;;6.00;;
7128;SDS011;3606;52.930;8.644;2024-01-15T10:49:04;15.07;;;6.10;;
7128;SDS011;3606;52.930;8.644;2024-01-15T10:51:30;7.23;;;3.10;;
7128;SDS011;3606;52.930;8.644;2024-01-15T10:53:56;7.20;;;2.43;;
7128;SDS011;3606;52.930;8.644;2024-01-15T10:56:22;4.37;;;2.30;;
7128;SDS011;3606;52.930;8.644;2024-01-15T10:58:49;6.43;;;2.20;;
7128;SDS011;3606;52.930;8.644;2024-01-15T11:01:15;5.03;;;2.30;;
7128;SDS011;3606;52.930;8.644;2024-01-15T11:03:42;6.33;;;2.63;;
7128;SDS011;3606;52.930;8.644;2024-01-15T11:06:18;5.50;;;2.27;;
7128;SDS011;3606;52.930;8.644;2024-01-15T11:08:50;6.13;;;2.50;;
7128;SDS011;3606;52.930;8.644;2024-01-15T11:11:17;6.50;;;2.43;;
7128;SDS011;3606;52.930;8.644;2024-01-15T11:13:45;4.83;;;1.53;;
7128;SDS011;3606;52.930;8.644;2024-01-15T11:16:13;3.97;;;2.37;;
7128;SDS011;3606;52.930;8.644;2024-01-15T11:18:43;12.47;;;3.30;;
7128;SDS011;3606;52.930;8.644;2024-01-15T11:21:21;5.93;;;2.07;;
7128;SDS011;3606;52.930;8.644;2024-01-15T11:23:55;5.83;;;2.30;;
7128;SDS011;3606;52.930;8.644;2024-01-15T11:34:20;7.80;;;2.30;;
7128;SDS011;3606;52.930;8.644;2024-01-15T11:37:06;4.23;;;2.20;;
7128;SDS011;3606;52.930;8.644;2024-01-15T11:42:01;4.70;;;2.60;;
7128;SDS011;3606;52.930;8.644;2024-01-15T11:44:30;4.53;;;2.07;;
7128;SDS011;3606;52.930;8.644;2024-01-15T11:52:36;4.17;;;3.60;;
7128;SDS011;3606;52.930;8.644;2024-01-15T11:57:48;14.40;;;3.50;;
7128;SDS011;3606;52.930;8.644;2024-01-15T12:00:16;4.83;;;2.40;;
7128;SDS011;3606;52.930;8.644;2024-01-15T12:02:43;5.93;;;2.70;;
7128;SDS011;3606;52.930;8.644;2024-01-15T12:05:11;11.10;;;2.77;;
7128;SDS011;3606;52.930;8.644;2024-01-15T12:07:47;5.73;;;2.20;;
7128;SDS011;3606;52.930;8.644;2024-01-15T12:10:15;3.70;;;1.83;;
7128;SDS011;3606;52.930;8.644;2024-01-15T12:13:00;5.93;;;2.00;;
7128;SDS011;3606;52.930;8.644;2024-01-15T12:15:27;3.93;;;2.13;;
7128;SDS011;3606;52.930;8.644;2024-01-15T12:17:57;8.73;;;2.87;;
7128;SDS011;3606;52.930;8.644;2024-01-15T12:20:24;4.30;;;2.30;;
7128;SDS011;3606;52.930;8.644;2024-01-15T12:22:50;6.50;;;2.27;;
7128;SDS011;3606;52.930;8.644;2024-01-15T12:25:16;5.47;;;2.67;;
7128;SDS011;3606;52.930;8.644;2024-01-15T12:27:41;6.80;;;2.07;;
7128;SDS011;3606;52.930;8.644;2024-01-15T12:30:09;6.77;;;2.30;;
7128;SDS011;3606;52.930;8.644;2024-01-15T12:32:36;5.50;;;2.20;;
7128;SDS011;3606;52.930;8.644;2024-01-15T12:35:02;4.77;;;2.30;;
7128;SDS011;3606;52.930;8.644;2024-01-15T12:37:29;9.93;;;2.33;;
7128;SDS011;3606;52.930;8.644;2024-01-15T12:39:55;3.87;;;1.67;;
7128;SDS011;3606;52.930;8.644;2024-01-15T12:42:21;4.93;;;2.07;;
7128;SDS011;3606;52.930;8.644;2024-01-15T12:44:46;7.37;;;2.70;;
7128;SDS011;3606;52.930;8.644;2024-01-15T12:47:12;6.97;;;2.10;;
7128;SDS011;3606;52.930;8.644;2024-01-15T12:49:39;6.00;;;2.03;;
7128;SDS011;3606;52.930;8.644;2024-01-15T12:52:07;9.47;;;2.17;;
7128;SDS011;3606;52.930;8.644;2024-01-15T12:54:34;9.27;;;2.53;;
7128;SDS011;3606;52.930;8.644;2024-01-15T12:57:00;5.90;;;2.57;;
7128;SDS011;3606;52.930;8.644;2024-01-15T12:59:26;3.77;;;2.43;;
7128;SDS011;3606;52.930;8.644;2024-01-15T13:01:51;4.47;;;2.57;;
7128;SDS011;3606;52.930;8.644;2024-01-15T13:04:21;5.97;;;2.23;;
7128;SDS011;3606;52.930;8.644;2024-01-15T13:06:47;5.43;;;2.23;;
7128;SDS011;3606;52.930;8.644;2024-01-15T13:09:14;8.27;;;2.33;;
7128;SDS011;3606;52.930;8.644;2024-01-15T13:11:40;6.70;;;2.17;;
7128;SDS011;3606;52.930;8.644;2024-01-15T13:14:05;6.40;;;2.00;;
7128;SDS011;3606;52.930;8.644;2024-01-15T13:16:31;4.93;;;2.30;;
7128;SDS011;3606;52.930;8.644;2024-01-15T13:18:57;3.80;;;1.77;;
7128;SDS011;3606;52.930;8.644;2024-01-15T13:21:23;6.20;;;2.17;;
7128;SDS011;3606;52.930;8.644;2024-01-15T13:23:49;5.10;;;1.80;;
7128;SDS011;3606;52.930;8.644;2024-01-15T13:26:15;5.17;;;2.10;;
7128;SDS011;3606;52.930;8.644;2024-01-15T13:28:43;6.87;;;3.47;;
7128;SDS011;3606;52.930;8.644;2024-01-15T13:31:08;9.20;;;3.30;;
7128;SDS011;3606;52.930;8.644;2024-01-15T13:33:34;4.77;;;2.67;;
7128;SDS011;3606;52.930;8.644;2024-01-15T13:36:00;9.53;;;3.67;;
7128;SDS011;3606;52.930;8.644;2024-01-15T13:38:25;9.23;;;4.73;;
7128;SDS011;3606;52.930;8.644;2024-01-15T13:40:52;9.00;;;4.50;;
7128;SDS011;3606;52.930;8.644;2024-01-15T13:43:20;7.23;;;4.00;;
7128;SDS011;3606;52.930;8.644;2024-01-15T13:45:45;5.70;;;4.53;;
7128;SDS011;3606;52.930;8.644;2024-01-15T13:48:11;6.83;;;4.90;;
7128;SDS011;3606;52.930;8.644;2024-01-15T13:50:37;7.60;;;4.60;;
7128;SDS011;3606;52.930;8.644;2024-01-15T13:53:03;11.47;;;6.43;;
7128;SDS011;3606;52.930;8.644;2024-01-15T13:55:29;10.00;;;5.80;;
7128;SDS011;3606;52.930;8.644;2024-01-15T13:57:55;7.87;;;5.53;;
7128;SDS011;3606;52.930;8.644;2024-01-15T14:00:21;7.90;;;5.33;;
7128;SDS011;3606;52.930;8.644;2024-01-15T14:02:47;7.27;;;4.30;;
7128;SDS011;3606;52.930;8.644;2024-01-15T14:05:12;4.13;;;3.50;;
7128;SDS011;3606;52.930;8.644;2024-01-15T14:07:39;4.97;;;3.30;;
7128;SDS011;3606;52.930;8.644;2024-01-15T14:10:05;4.93;;;3.13;;
7128;SDS011;3606;52.930;8.644;2024-01-15T14:12:33;4.43;;;2.93;;
7128;SDS011;3606;52.930;8.644;2024-01-15T14:14:59;4.77;;;3.00;;
7128;SDS011;3606;52.930;8.644;2024-01-15T14:17:25;5.83;;;3.60;;
7128;SDS011;3606;52.930;8.644;2024-01-15T14:19:52;4.30;;;2.70;;
7128;SDS011;3606;52.930;8.644;2024-01-15T14:22:18;4.70;;;2.53;;
7128;SDS011;3606;52.930;8.644;2024-01-15T14:24:44;3.43;;;1.90;;
7128;SDS011;3606;52.930;8.644;2024-01-15T14:27:09;4.90;;;2.13;;
7128;SDS011;3606;52.930;8.644;2024-01-15T14:29:35;3.73;;;2.17;;
7128;SDS011;3606;52.930;8.644;2024-01-15T14:32:01;5.37;;;2.00;;
7128;SDS011;3606;52.930;8.644;2024-01-15T14:34:27;2.53;;;2.10;;
7128;SDS011;3606;52.930;8.644;2024-01-15T14:36:53;2.07;;;1.80;;
7128;SDS011;3606;52.930;8.644;2024-01-15T14:39:19;3.27;;;1.77;;
7128;SDS011;3606;52.930;8.644;2024-01-15T14:41:46;5.73;;;3.80;;
7128;SDS011;3606;52.930;8.644;2024-01-15T14:44:12;7.00;;;4.10;;
7128;SDS011;3606;52.930;8.644;2024-01-15T14:46:38;3.97;;;2.60;;
7128;SDS011;3606;52.930;8.644;2024-01-15T14:49:03;2.07;;;1.93;;
7128;SDS011;3606;52.930;8.644;2024-01-15T14:51:30;2.67;;;2.30;;
7128;SDS011;3606;52.930;8.644;2024-01-15T14:53:56;2.20;;;2.00;;
7128;SDS011;3606;52.930;8.644;2024-01-15T14:56:21;2.30;;;2.10;;
7128;SDS011;3606;52.930;8.644;2024-01-15T14:58:47;7.17;;;2.80;;
7128;SDS011;3606;52.930;8.644;2024-01-15T15:01:13;4.30;;;2.67;;
7128;SDS011;3606;52.930;8.644;2024-01-15T15:03:39;5.47;;;2.90;;
7128;SDS011;3606;52.930;8.644;2024-01-15T15:06:05;3.20;;;2.70;;
7128;SDS011;3606;52.930;8.644;2024-01-15T15:08:32;2.93;;;2.30;;
7128;SDS011;3606;52.930;8.644;2024-01-15T15:10:58;4.30;;;3.07;;
7128;SDS011;3606;52.930;8.644;2024-01-15T15:13:24;3.27;;;2.83;;
7128;SDS011;3606;52.930;8.644;2024-01-15T15:15:51;4.30;;;2.70;;
7128;SDS011;3606;52.930;8.644;2024-01-15T15:18:17;4.83;;;2.90;;
7128;SDS011;3606;52.930;8.644;2024-01-15T15:20:42;10.90;;;5.30;;
7128;SDS011;3606;52.930;8.644;2024-01-15T15:23:08;3.17;;;2.10;;
7128;SDS011;3606;52.930;8.644;2024-01-15T15:25:35;5.00;;;2.47;;
7128;SDS011;3606;52.930;8.644;2024-01-15T15:28:01;4.20;;;2.13;;